Time;durP1;ratioP1;P1;durP2;ratioP2;P2;SDS_P1;SDS_P2;PMS_P1;PMS_P2;Temp;Humidity;BMP_temperature;BMP_pressure;BME280_temperature;BME280_humidity;BME280_pressure;Samples;Min_cycle;Max_cycle;Signal;HPM_P1;HPM_P2
2021/05/06 00:32:25;;;;;;;7.62;4.58;;;;;;;6.89;70.22;99893.56;1812216;79;21307;-78
2021/05/06 00:35:33;;;;;;;7.70;4.78;;;;;;;6.87;69.91;99895.61;1810514;79;21212;-78
2021/05/06 00:38:45;;;;;;;10.38;4.47;;;;;;;6.78;69.79;99889.78;1811634;79;21818;-78
2021/05/06 00:42:04;;;;;;;13.03;5.60;;;;;;;6.70;70.02;99889.73;1811468;79;21322;-78
2021/05/06 00:54:12;;;;;;;11.10;4.70;;;;;;;6.52;70.61;99876.72;1810143;79;21870;-78
2021/05/06 00:56:10;;;;;;;9.08;4.95;;;;;;;6.49;70.76;99881.10;1811220;79;21723;-78
2021/05/06 00:58:22;;;;;;;12.07;4.53;;;;;;;6.46;70.73;99875.50;1799772;79;21291;-78
2021/05/06 01:04:44;;;;;;;12.28;4.40;;;;;;;6.41;70.56;99871.05;1719647;82;21304;-78
2021/05/06 01:07:53;;;;;;;13.93;5.03;;;;;;;6.37;70.77;99867.80;1742241;82;21311;-78
2021/05/06 01:14:00;;;;;;;9.68;5.20;;;;;;;6.29;70.98;99868.24;1773033;81;21303;-78
2021/05/06 01:17:16;;;;;;;7.40;4.70;;;;;;;6.26;71.18;99868.59;1773037;81;21185;-78
2021/05/06 01:20:24;;;;;;;9.95;5.50;;;;;;;6.24;71.53;99870.08;1773428;81;21308;-78
2021/05/06 01:23:30;;;;;;;11.20;5.35;;;;;;;6.24;71.65;99870.59;1772921;81;21296;-79
2021/05/06 01:26:41;;;;;;;11.48;5.17;;;;;;;6.23;71.63;99862.95;1771616;81;21299;-79
2021/05/06 01:29:51;;;;;;;10.93;5.40;;;;;;;6.23;71.74;99865.67;1773052;81;21300;-78
2021/05/06 01:32:57;;;;;;;15.45;6.08;;;;;;;6.24;71.86;99868.72;1771830;81;21370;-79
2021/05/06 01:36:09;;;;;;;12.55;5.42;;;;;;;6.24;72.00;99871.44;1772313;81;21315;-78
2021/05/06 01:42:24;;;;;;;14.50;5.08;;;;;;;6.19;71.91;99860.71;1773277;81;21339;-78
2021/05/06 01:58:56;;;;;;;37.53;9.75;;;;;;;6.09;72.31;99844.02;1803119;79;21875;-78
2021/05/06 02:01:56;;;;;;;20.85;9.48;;;;;;;6.08;71.92;99841.47;1803255;79;21359;-78
2021/05/06 02:05:01;;;;;;;21.82;9.13;;;;;;;6.10;71.53;99843.50;1801652;79;21185;-78
2021/05/06 02:08:09;;;;;;;25.35;9.40;;;;;;;6.13;71.21;99836.41;1802654;79;21327;-77
2021/05/06 02:11:17;;;;;;;30.85;9.13;;;;;;;6.15;70.95;99852.02;1802922;79;21299;-79
2021/05/06 02:14:31;;;;;;;23.80;9.03;;;;;;;6.17;70.81;99851.88;1802489;79;21850;-79
2021/05/06 02:17:37;;;;;;;31.65;9.08;;;;;;;6.19;70.81;99838.48;1801254;79;21347;-79
2021/05/06 02:20:46;;;;;;;16.93;8.43;;;;;;;6.19;70.78;99835.77;1802741;79;21287;-79
2021/05/06 02:23:54;;;;;;;22.27;8.88;;;;;;;6.17;70.87;99838.30;1801411;79;21307;-79
2021/05/06 02:27:02;;;;;;;20.60;7.15;;;;;;;6.12;70.93;99845.06;1802073;79;21760;-79
2021/05/06 02:30:08;;;;;;;14.55;6.62;;;;;;;6.09;70.94;99848.59;1802849;79;21287;-78
2021/05/06 02:33:15;;;;;;;28.23;7.87;;;;;;;6.07;70.88;99848.77;1803126;79;21291;-78
2021/05/06 02:36:22;;;;;;;25.48;9.65;;;;;;;6.10;70.87;99851.14;1802477;79;21208;-79
2021/05/06 02:39:30;;;;;;;44.58;10.88;;;;;;;6.12;70.58;99845.06;1802999;79;21350;-79
2021/05/06 02:42:35;;;;;;;31.10;11.33;;;;;;;6.14;70.49;99848.97;1802895;79;21573;-79
2021/05/06 02:45:40;;;;;;;39.60;13.58;;;;;;;6.15;70.21;99850.66;1782375;79;21336;-79
2021/05/06 02:48:48;;;;;;;26.15;10.13;;;;;;;6.20;70.46;99844.25;1766796;81;21296;-78
2021/05/06 02:52:00;;;;;;;28.50;11.35;;;;;;;6.28;70.36;99838.88;1767890;81;21328;-78
2021/05/06 02:55:18;;;;;;;28.57;12.33;;;;;;;6.38;70.36;99838.25;1767822;81;21315;-78
2021/05/06 02:58:35;;;;;;;36.03;11.38;;;;;;;6.48;70.42;99831.34;1766357;81;21878;-78
2021/05/06 03:04:51;;;;;;;42.65;13.93;;;;;;;6.76;69.48;99831.98;1768121;81;21300;-78
2021/05/06 03:08:08;;;;;;;48.05;13.43;;;;;;;6.99;69.12;99827.33;1766933;81;21224;-78
2021/05/06 03:24:39;;;;;;;25.72;12.98;;;;;;;7.90;68.71;99815.02;1766653;81;21636;-79
2021/05/06 03:44:42;;;;;;;82.97;28.12;;;;;;;8.39;67.80;99810.39;1687459;83;21322;-79
2021/05/06 04:03:22;;;;;;;71.53;30.08;;;;;;;9.25;65.94;99807.80;1801683;79;21213;-78
2021/05/06 04:18:04;;;;;;;66.90;24.80;;;;;;;10.39;64.77;99798.14;1802549;79;21213;-79
2021/05/06 04:28:00;;;;;;;49.83;20.27;;;;;;;10.87;64.10;99801.36;1802863;79;21185;-79
2021/05/06 04:31:21;;;;;;;63.98;23.20;;;;;;;11.10;63.23;99804.45;1803119;79;22423;-79
2021/05/06 04:37:37;;;;;;;45.70;18.82;;;;;;;11.42;62.63;99800.41;1801488;79;21886;-79
2021/05/06 05:03:37;;;;;;;18.35;7.15;;;;;;;12.52;61.82;99802.67;1771333;81;21236;-79
2021/05/06 05:07:07;;;;;;;20.00;6.40;;;;;;;12.74;61.34;99804.26;1773701;79;21306;-78
2021/05/06 05:13:45;;;;;;;8.18;3.40;;;;;;;13.20;60.35;99807.75;1775994;79;21276;-79
2021/05/06 05:20:23;;;;;;;6.90;2.87;;;;;;;13.72;59.29;99806.77;1780429;79;21185;-79
2021/05/06 05:23:33;;;;;;;12.05;3.05;;;;;;;13.93;58.49;99801.09;1790356;79;21173;-80
2021/05/06 05:26:35;;;;;;;6.15;2.80;;;;;;;14.19;58.42;99807.64;1767583;79;21308;-80
2021/05/06 05:29:40;;;;;;;6.30;2.65;;;;;;;14.43;58.13;99800.10;1795546;79;21193;-79
2021/05/06 05:32:46;;;;;;;6.08;2.62;;;;;;;14.64;56.86;99803.72;1800308;79;21348;-79
2021/05/06 05:55:23;;;;;;;6.35;2.85;;;;;;;15.66;54.28;99782.73;1762943;79;21815;-79
2021/05/06 05:58:29;;;;;;;14.83;3.00;;;;;;;15.71;54.32;99772.72;1757542;80;21303;-80
2021/05/06 06:01:35;;;;;;;8.45;2.25;;;;;;;15.81;54.88;99775.02;1759987;80;21303;-79
2021/05/06 06:04:41;;;;;;;5.95;2.58;;;;;;;15.94;54.02;99769.91;1757643;80;21189;-79
2021/05/06 06:07:48;;;;;;;9.80;2.83;;;;;;;15.98;52.97;99773.37;1773137;79;21770;-79
2021/05/06 06:10:53;;;;;;;8.48;2.72;;;;;;;16.00;53.19;99767.11;1763118;79;21288;-80
2021/05/06 06:14:05;;;;;;;8.00;1.95;;;;;;;16.14;53.00;99762.84;1761341;80;21735;-80
2021/05/06 06:17:07;;;;;;;4.35;1.90;;;;;;;16.33;52.33;99758.53;1760563;80;21709;-80
2021/05/06 06:20:15;;;;;;;7.97;2.10;;;;;;;16.49;50.74;99757.09;1766850;79;21684;-80
2021/05/06 06:23:22;;;;;;;5.25;1.35;;;;;;;16.59;50.90;99754.64;1762897;79;21308;-79
2021/05/06 06:26:27;;;;;;;11.53;1.60;;;;;;;16.66;49.71;99750.98;1764977;80;21338;-79
2021/05/06 06:29:34;;;;;;;11.73;1.72;;;;;;;16.74;49.26;99743.78;1758160;79;21342;-79
2021/05/06 06:32:40;;;;;;;5.05;1.50;;;;;;;16.84;49.45;99744.95;1757864;81;21370;-79
2021/05/06 06:35:48;;;;;;;4.35;1.90;;;;;;;16.99;50.33;99739.03;1786535;79;21262;-80
2021/05/06 06:38:56;;;;;;;2.72;1.60;;;;;;;17.16;48.10;99738.38;1770987;79;21831;-79
2021/05/06 06:42:02;;;;;;;2.45;1.30;;;;;;;17.19;47.86;99730.47;1761316;79;21361;-79
2021/05/06 06:45:07;;;;;;;3.83;1.30;;;;;;;17.22;47.48;99723.62;1764474;79;21307;-79
2021/05/06 06:48:14;;;;;;;11.78;1.67;;;;;;;17.31;47.74;99720.83;1763243;79;21253;-79
2021/05/06 06:51:20;;;;;;;2.52;1.47;;;;;;;17.38;45.76;99731.27;1764149;80;21280;-79
2021/05/06 06:54:27;;;;;;;7.90;1.60;;;;;;;17.33;46.29;99725.06;1724613;81;21271;-79
2021/05/06 06:57:34;;;;;;;13.83;2.02;;;;;;;17.36;47.22;99721.84;1708210;83;21339;-79
2021/05/06 07:00:39;;;;;;;4.35;1.30;;;;;;;17.44;47.58;99726.17;1721323;81;21377;-79
2021/05/06 07:03:45;;;;;;;6.37;1.10;;;;;;;17.48;45.92;99734.84;1728876;81;21326;-80
2021/05/06 07:06:52;;;;;;;3.45;1.60;;;;;;;17.53;47.00;99731.67;1729925;82;21367;-79
2021/05/06 07:10:03;;;;;;;3.25;1.25;;;;;;;17.62;45.86;99727.49;1719394;81;21747;-79
2021/05/06 07:13:08;;;;;;;8.43;1.45;;;;;;;17.68;46.63;99737.30;1725719;82;21847;-79
2021/05/06 07:16:15;;;;;;;10.53;1.50;;;;;;;17.76;46.67;99743.38;1721931;82;21366;-79
2021/05/06 07:19:20;;;;;;;3.27;1.82;;;;;;;17.86;44.76;99748.33;1722472;82;21626;-79
2021/05/06 07:22:27;;;;;;;8.70;1.70;;;;;;;17.92;44.36;99747.36;1697380;83;21347;-80
2021/05/06 07:25:34;;;;;;;3.67;1.67;;;;;;;18.06;45.15;99746.06;1689939;83;21334;-80
2021/05/06 07:28:49;;;;;;;6.00;2.08;;;;;;;18.21;45.14;99747.00;1697563;83;21838;-79
2021/05/06 07:31:55;;;;;;;3.35;1.37;;;;;;;18.34;44.92;99745.36;1684555;83;22571;-79
2021/05/06 07:35:02;;;;;;;10.08;1.42;;;;;;;18.47;44.54;99746.20;1691830;83;21860;-79
2021/05/06 07:38:08;;;;;;;5.05;1.25;;;;;;;18.59;44.51;99742.35;1699865;82;21879;-78
2021/05/06 07:41:15;;;;;;;5.28;1.50;;;;;;;18.68;44.30;99741.44;1718872;81;21811;-78
2021/05/06 07:44:22;;;;;;;8.33;1.72;;;;;;;18.70;43.21;99743.99;1726140;81;21284;-79
2021/05/06 07:47:29;;;;;;;4.03;1.95;;;;;;;18.73;43.79;99731.89;1703928;82;21329;-78
2021/05/06 07:50:37;;;;;;;6.75;1.32;;;;;;;18.77;41.34;99734.98;1715194;81;21308;-78
2021/05/06 07:53:48;;;;;;;5.90;1.70;;;;;;;18.77;42.24;99728.06;1777535;79;21890;-80
2021/05/06 07:56:52;;;;;;;2.77;1.60;;;;;;;18.79;42.32;99721.75;1777823;79;21351;-79
2021/05/06 08:00:00;;;;;;;3.42;1.42;;;;;;;18.88;43.06;99711.98;1768766;79;21550;-79
2021/05/06 08:03:07;;;;;;;10.60;1.77;;;;;;;18.95;40.94;99716.82;1786335;79;21629;-79
2021/05/06 08:06:13;;;;;;;2.67;1.50;;;;;;;19.02;41.01;99719.47;1785267;79;22452;-78
2021/05/06 08:09:19;;;;;;;6.20;1.50;;;;;;;19.04;40.17;99709.80;1788069;79;21846;-79
2021/05/06 08:12:25;;;;;;;4.85;1.37;;;;;;;19.03;39.66;99719.21;1779776;79;21296;-78
2021/05/06 08:15:31;;;;;;;5.53;1.60;;;;;;;19.00;40.12;99709.99;1787523;79;21743;-78
2021/05/06 08:18:37;;;;;;;7.45;1.60;;;;;;;19.10;41.52;99697.75;1784092;79;21323;-79
2021/05/06 08:21:43;;;;;;;6.20;1.45;;;;;;;19.27;41.99;99696.94;1777704;79;21177;-79
2021/05/06 08:24:50;;;;;;;3.12;1.47;;;;;;;19.35;41.09;99692.39;1783667;79;21303;-79
2021/05/06 08:27:57;;;;;;;2.85;1.40;;;;;;;19.40;40.28;99704.97;1782956;79;21169;-79
2021/05/06 08:31:03;;;;;;;4.28;1.40;;;;;;;19.42;39.50;99701.38;1785674;79;21291;-77
2021/05/06 08:34:08;;;;;;;2.62;1.45;;;;;;;19.41;40.59;99694.16;1777555;79;21287;-79
2021/05/06 08:37:15;;;;;;;2.15;1.35;;;;;;;19.51;41.16;99700.44;1782923;79;21750;-78
2021/05/06 08:40:21;;;;;;;3.02;1.35;;;;;;;19.63;40.65;99707.64;1777147;79;21844;-78
2021/05/06 08:43:31;;;;;;;4.05;1.60;;;;;;;19.70;40.41;99708.02;1719215;81;21315;-79
2021/05/06 08:46:41;;;;;;;4.20;1.60;;;;;;;19.62;39.71;99704.58;1778650;79;21605;-79
2021/05/06 08:49:44;;;;;;;3.92;1.50;;;;;;;19.57;40.86;99705.84;1781224;79;21564;-79
2021/05/06 08:52:50;;;;;;;6.50;1.30;;;;;;;19.68;40.71;99712.99;1786398;79;21295;-79
2021/05/06 08:55:58;;;;;;;5.15;1.67;;;;;;;19.79;40.21;99713.45;1780096;79;21185;-79
2021/05/06 08:59:04;;;;;;;6.78;1.55;;;;;;;19.82;39.66;99708.80;1791165;79;21479;-79
2021/05/06 09:02:11;;;;;;;7.35;1.27;;;;;;;19.82;38.51;99706.02;1783310;79;21185;-79
2021/05/06 09:05:18;;;;;;;5.30;1.55;;;;;;;19.81;39.91;99711.28;1774547;79;21829;-79
2021/05/06 09:08:28;;;;;;;1.92;1.20;;;;;;;19.82;39.11;99700.47;1786747;79;22396;-79
2021/05/06 09:11:40;;;;;;;7.03;1.90;;;;;;;19.88;40.35;99696.68;1787861;79;21307;-80
2021/05/06 09:14:57;;;;;;;9.98;1.62;;;;;;;20.02;40.14;99693.02;1787646;79;21188;-80
2021/05/06 09:18:03;;;;;;;6.30;1.92;;;;;;;20.13;40.63;99690.14;1789745;79;21791;-80
2021/05/06 09:21:10;;;;;;;4.85;1.40;;;;;;;20.28;40.08;99691.47;1784001;79;21350;-80
2021/05/06 09:24:26;;;;;;;6.03;1.10;;;;;;;20.31;40.29;99682.08;1750930;81;21331;-80
2021/05/06 09:27:35;;;;;;;6.28;1.35;;;;;;;20.32;40.23;99682.37;1741960;81;21604;-80
2021/05/06 09:31:08;;;;;;;2.98;1.32;;;;;;;20.32;40.06;99677.37;1743980;80;21363;-80
2021/05/06 09:34:15;;;;;;;12.35;1.70;;;;;;;20.35;39.92;99674.09;1782623;79;21173;-79
2021/05/06 09:37:34;;;;;;;4.22;1.42;;;;;;;20.39;39.04;99682.20;1778531;79;21300;-80
2021/05/06 09:40:44;;;;;;;6.08;1.42;;;;;;;20.36;39.97;99671.59;1779967;79;21174;-80
2021/05/06 09:43:50;;;;;;;3.62;1.40;;;;;;;20.28;40.12;99670.64;1783927;79;21287;-80
2021/05/06 09:46:57;;;;;;;5.65;1.50;;;;;;;20.22;39.78;99678.06;1789972;79;21613;-80
2021/05/06 09:50:03;;;;;;;4.20;1.37;;;;;;;20.19;39.42;99686.08;1777191;79;21831;-80
2021/05/06 09:53:12;;;;;;;6.42;1.50;;;;;;;20.16;39.15;99677.15;1720566;82;21205;-80
2021/05/06 09:56:16;;;;;;;2.47;1.40;;;;;;;20.12;38.37;99674.58;1713003;82;21295;-77
2021/05/06 09:59:36;;;;;;;4.87;1.50;;;;;;;20.12;40.28;99670.41;1749399;81;21327;-77
2021/05/06 10:02:42;;;;;;;6.03;1.35;;;;;;;20.21;40.22;99668.61;1738939;81;21330;-77
2021/05/06 10:05:48;;;;;;;6.35;1.42;;;;;;;20.36;38.98;99663.27;1742581;82;21218;-77
2021/05/06 10:08:54;;;;;;;5.03;1.35;;;;;;;20.35;39.94;99665.20;1748785;81;21294;-77
2021/05/06 10:12:00;;;;;;;4.03;1.32;;;;;;;20.41;41.34;99663.33;1720141;82;21350;-77
2021/05/06 10:15:07;;;;;;;3.62;1.30;;;;;;;20.56;40.94;99653.88;1707606;82;21307;-77
2021/05/06 10:18:14;;;;;;;7.65;1.67;;;;;;;20.55;40.31;99654.95;1717445;83;21319;-77
2021/05/06 10:21:25;;;;;;;4.22;1.40;;;;;;;20.49;38.81;99657.37;1732282;82;21359;-77
2021/05/06 10:24:31;;;;;;;3.95;1.60;;;;;;;20.42;39.60;99653.38;1737372;82;21212;-77
2021/05/06 10:27:37;;;;;;;3.72;1.10;;;;;;;20.39;38.97;99654.43;1722543;82;21197;-77
2021/05/06 10:30:42;;;;;;;9.25;1.37;;;;;;;20.39;38.84;99648.88;1726849;82;21292;-77
2021/05/06 10:33:52;;;;;;;2.47;1.30;;;;;;;20.43;38.45;99648.11;1728562;82;21240;-77
2021/05/06 10:36:58;;;;;;;4.37;1.25;;;;;;;20.52;38.25;99641.59;1730386;82;21346;-77
2021/05/06 10:40:03;;;;;;;4.40;1.40;;;;;;;20.50;39.15;99642.37;1730192;81;21338;-77
2021/05/06 10:43:32;;;;;;;3.85;1.60;;;;;;;20.54;40.54;99632.44;1726335;82;21319;-77
2021/05/06 10:46:59;;;;;;;1.45;1.10;;;;;;;20.63;39.49;99636.45;1713948;82;21316;-77
2021/05/06 10:50:29;;;;;;;7.45;1.42;;;;;;;20.68;39.27;99639.28;1731697;82;21379;-77
2021/05/06 10:53:36;;;;;;;3.17;1.22;;;;;;;20.57;39.98;99633.32;1742244;81;21298;-79
2021/05/06 10:56:47;;;;;;;2.72;1.35;;;;;;;20.63;39.49;99637.00;1782277;79;21186;-80
2021/05/06 10:59:55;;;;;;;7.35;1.47;;;;;;;20.66;39.29;99630.38;1723625;82;22724;-80
2021/05/06 11:03:00;;;;;;;6.25;1.30;;;;;;;20.66;38.98;99623.44;1755213;80;21246;-80
2021/05/06 11:06:05;;;;;;;8.20;1.60;;;;;;;20.67;38.21;99622.33;1775866;79;21303;-80
2021/05/06 11:09:31;;;;;;;3.42;1.40;;;;;;;20.68;38.06;99621.78;1775226;79;21300;-80
2021/05/06 11:12:40;;;;;;;3.45;1.25;;;;;;;20.63;37.92;99614.77;1784354;79;21196;-79
2021/05/06 11:15:50;;;;;;;3.80;1.27;;;;;;;20.64;38.21;99622.84;1785829;79;21291;-79
2021/05/06 11:18:57;;;;;;;7.03;1.27;;;;;;;20.64;38.59;99620.06;1775476;79;21359;-80
2021/05/06 11:22:01;;;;;;;7.12;1.52;;;;;;;20.60;38.83;99620.28;1773509;79;21828;-80
2021/05/06 11:25:08;;;;;;;8.73;2.10;;;;;;;20.60;39.40;99613.34;1797146;79;21145;-80
2021/05/06 11:28:28;;;;;;;4.33;1.70;;;;;;;20.63;39.71;99615.61;1731736;81;21797;-80
2021/05/06 11:31:52;;;;;;;1.90;1.37;;;;;;;20.61;38.16;99616.43;1779908;79;21212;-80
2021/05/06 11:34:58;;;;;;;3.92;1.50;;;;;;;20.60;38.92;99610.56;1751926;80;21307;-79
2021/05/06 11:38:03;;;;;;;3.50;1.50;;;;;;;20.53;39.27;99608.55;1750040;81;21182;-80
2021/05/06 11:41:15;;;;;;;4.92;1.40;;;;;;;20.49;39.63;99606.54;1750834;81;21340;-80
2021/05/06 11:44:21;;;;;;;3.35;1.20;;;;;;;20.47;40.68;99604.55;1773493;79;21812;-79
2021/05/06 11:47:36;;;;;;;7.33;1.57;;;;;;;20.46;39.88;99610.63;1777180;79;22542;-79
2021/05/06 11:50:41;;;;;;;5.05;1.35;;;;;;;20.38;40.19;99605.55;1784771;79;21808;-79
2021/05/06 11:53:47;;;;;;;5.95;1.47;;;;;;;20.29;39.58;99595.98;1775077;79;21832;-79
2021/05/06 11:57:02;;;;;;;3.22;1.52;;;;;;;20.23;40.13;99592.30;1789212;79;21776;-80
2021/05/06 12:00:07;;;;;;;2.70;1.37;;;;;;;20.29;41.27;99594.04;1775956;79;21189;-80
2021/05/06 12:03:18;;;;;;;5.35;1.35;;;;;;;20.40;41.12;99592.22;1773142;79;21279;-80
2021/05/06 12:06:36;;;;;;;8.48;1.52;;;;;;;20.46;41.18;99585.62;1786346;79;21283;-80
2021/05/06 12:09:41;;;;;;;3.37;1.47;;;;;;;20.45;41.14;99581.73;1780717;79;21318;-80
2021/05/06 12:12:45;;;;;;;4.10;1.40;;;;;;;20.32;41.39;99574.61;1779391;79;21869;-79
2021/05/06 12:15:50;;;;;;;5.40;1.47;;;;;;;20.27;40.87;99579.55;1783616;79;21383;-80
2021/05/06 12:19:16;;;;;;;3.90;1.37;;;;;;;20.27;40.85;99571.77;1777253;79;21253;-79
2021/05/06 12:22:21;;;;;;;6.45;1.72;;;;;;;20.28;41.45;99582.64;1778234;79;21335;-79
2021/05/06 12:25:26;;;;;;;4.45;1.37;;;;;;;20.31;40.59;99577.94;1778755;79;22751;-80
2021/05/06 12:28:32;;;;;;;5.87;1.57;;;;;;;20.34;40.75;99569.66;1782365;79;21276;-79
2021/05/06 12:31:39;;;;;;;6.80;1.60;;;;;;;20.36;41.36;99571.62;1777716;79;21251;-80
2021/05/06 12:34:46;;;;;;;4.60;1.50;;;;;;;20.34;41.87;99566.88;1785997;79;21712;-80
2021/05/06 12:37:53;;;;;;;4.33;1.70;;;;;;;20.33;41.12;99574.93;1783080;79;21806;-79
2021/05/06 12:40:59;;;;;;;5.42;1.70;;;;;;;20.28;40.89;99565.11;1769860;79;21272;-79
2021/05/06 12:44:06;;;;;;;2.10;1.42;;;;;;;20.25;41.58;99569.81;1780882;79;21364;-80
2021/05/06 12:47:37;;;;;;;4.60;1.67;;;;;;;20.27;40.80;99560.12;1786620;79;21930;-79
2021/05/06 12:50:45;;;;;;;14.68;2.00;;;;;;;20.30;40.98;99555.44;1788413;79;21173;-80
2021/05/06 12:54:15;;;;;;;3.55;1.47;;;;;;;20.35;39.70;99551.89;1783131;79;21307;-80
2021/05/06 12:57:23;;;;;;;6.85;1.52;;;;;;;20.46;39.28;99556.46;1796504;79;21604;-79
2021/05/06 13:00:35;;;;;;;3.12;1.30;;;;;;;20.55;40.31;99552.16;1798907;79;21303;-79
2021/05/06 13:03:44;;;;;;;6.05;1.30;;;;;;;20.63;38.92;99556.42;1793056;79;21933;-79
2021/05/06 13:06:51;;;;;;;6.05;1.32;;;;;;;20.66;37.57;99556.75;1802888;79;21295;-79
2021/05/06 13:09:59;;;;;;;4.70;1.40;;;;;;;20.65;38.11;99540.32;1809497;79;21166;-79
2021/05/06 13:13:04;;;;;;;6.15;2.12;;;;;;;20.63;38.26;99540.59;1793230;79;21225;-79
2021/05/06 13:16:09;;;;;;;9.23;1.52;;;;;;;20.64;38.12;99542.81;1789201;79;21267;-79
2021/05/06 13:19:21;;;;;;;4.33;1.60;;;;;;;20.64;38.24;99529.77;1800913;79;21181;-79
2021/05/06 13:22:29;;;;;;;4.80;1.25;;;;;;;20.68;38.92;99522.59;1787995;79;21346;-79
2021/05/06 13:25:49;;;;;;;2.37;1.60;;;;;;;20.74;38.81;99526.80;1778934;79;21307;-79
2021/05/06 13:28:56;;;;;;;10.43;1.40;;;;;;;20.79;39.12;99529.08;1750457;79;21169;-78
2021/05/06 13:32:03;;;;;;;2.98;1.15;;;;;;;20.90;39.44;99530.05;1807478;79;21885;-79
2021/05/06 13:35:08;;;;;;;6.33;1.30;;;;;;;21.07;39.06;99535.47;1780884;79;21818;-79
2021/05/06 13:38:16;;;;;;;2.98;1.20;;;;;;;21.14;37.80;99532.77;1808459;79;21188;-78
2021/05/06 13:41:22;;;;;;;3.42;1.00;;;;;;;21.24;37.38;99525.62;1801777;79;21184;-79
2021/05/06 13:44:32;;;;;;;3.50;1.52;;;;;;;21.28;36.56;99524.83;1776317;80;21584;-79
2021/05/06 13:47:37;;;;;;;7.60;1.40;;;;;;;21.22;36.54;99534.77;1779371;80;21784;-79
2021/05/06 13:50:43;;;;;;;14.47;1.72;;;;;;;21.12;36.43;99533.56;1776457;80;21307;-79
2021/05/06 13:53:51;;;;;;;5.20;1.30;;;;;;;21.06;36.41;99534.63;1777852;80;21358;-79
2021/05/06 13:56:58;;;;;;;2.33;1.07;;;;;;;21.01;36.96;99535.98;1774711;80;21346;-79
2021/05/06 14:00:03;;;;;;;5.03;1.60;;;;;;;21.01;36.41;99531.80;1770714;81;21292;-79
2021/05/06 14:03:09;;;;;;;4.85;1.42;;;;;;;20.98;36.39;99536.49;1770698;81;21220;-79
2021/05/06 14:06:14;;;;;;;4.28;1.12;;;;;;;20.93;36.25;99525.33;1770883;81;21303;-79
2021/05/06 14:09:21;;;;;;;7.42;1.20;;;;;;;20.89;35.37;99535.32;1769841;81;21770;-79
2021/05/06 14:12:26;;;;;;;5.30;1.20;;;;;;;20.86;35.79;99531.66;1769626;81;21236;-79
2021/05/06 14:15:31;;;;;;;7.97;1.57;;;;;;;20.84;35.84;99540.28;1769938;81;21273;-79
2021/05/06 14:18:38;;;;;;;5.87;1.20;;;;;;;20.86;35.61;99540.00;1770934;81;21929;-79
2021/05/06 14:21:46;;;;;;;6.45;1.47;;;;;;;20.86;36.31;99545.01;1769932;81;21185;-79
2021/05/06 14:24:51;;;;;;;9.63;1.45;;;;;;;20.86;37.08;99537.22;1770870;81;21196;-79
2021/05/06 14:28:00;;;;;;;8.05;1.50;;;;;;;20.82;36.85;99536.06;1769440;81;21295;-79
2021/05/06 14:31:07;;;;;;;5.70;1.32;;;;;;;20.77;37.36;99544.35;1771408;81;21169;-79
2021/05/06 14:34:05;;;;;;;7.75;1.72;;;;;;;20.72;37.22;99535.97;1790008;79;21315;-79
2021/05/06 14:37:12;;;;;;;6.62;1.60;;;;;;;20.71;37.52;99534.30;1802031;79;21878;-79
2021/05/06 14:40:18;;;;;;;10.08;2.83;;;;;;;20.74;37.44;99539.31;1799813;79;21272;-79
2021/05/06 14:43:24;;;;;;;3.80;1.10;;;;;;;20.74;37.63;99532.36;1794659;79;21712;-79
2021/05/06 14:46:29;;;;;;;13.85;1.75;;;;;;;20.72;38.43;99542.36;1771015;81;21359;-79
2021/05/06 14:49:35;;;;;;;6.42;1.50;;;;;;;20.67;38.95;99540.36;1770434;81;21331;-79
2021/05/06 14:52:41;;;;;;;4.42;1.80;;;;;;;20.57;39.42;99544.42;1769809;81;21283;-79
2021/05/06 14:55:49;;;;;;;5.60;1.62;;;;;;;20.44;40.14;99539.23;1770430;81;21303;-79
2021/05/06 14:58:54;;;;;;;4.12;1.60;;;;;;;20.31;39.63;99541.01;1770455;80;21335;-79
2021/05/06 15:02:00;;;;;;;3.40;1.60;;;;;;;20.21;38.55;99538.94;1771069;81;21323;-79
2021/05/06 15:05:07;;;;;;;7.47;1.62;;;;;;;20.09;38.52;99538.22;1770068;81;21255;-79
2021/05/06 15:08:17;;;;;;;9.30;2.15;;;;;;;19.99;38.97;99544.47;1769373;81;21187;-79
2021/05/06 15:11:25;;;;;;;9.55;1.60;;;;;;;19.86;39.71;99534.61;1769834;81;21315;-79
2021/05/06 15:14:31;;;;;;;6.35;1.50;;;;;;;19.78;39.72;99539.75;1790319;79;21185;-79
2021/05/06 15:17:37;;;;;;;10.32;1.95;;;;;;;19.65;39.96;99533.45;1769817;81;21213;-79
2021/05/06 15:20:42;;;;;;;7.50;2.25;;;;;;;19.51;39.99;99535.41;1769623;81;21767;-79
2021/05/06 15:23:47;;;;;;;11.55;2.30;;;;;;;19.35;40.29;99534.34;1774670;79;21366;-79
2021/05/06 15:26:53;;;;;;;3.65;1.98;;;;;;;19.22;40.73;99527.20;1799268;79;21878;-79
2021/05/06 15:30:01;;;;;;;6.05;1.85;;;;;;;19.11;41.06;99536.44;1802951;79;21343;-79
2021/05/06 15:33:06;;;;;;;7.70;1.80;;;;;;;18.98;41.39;99534.83;1794938;79;21326;-79
2021/05/06 15:36:17;;;;;;;8.65;1.90;;;;;;;18.88;41.76;99531.88;1801615;79;21311;-79
2021/05/06 15:39:22;;;;;;;5.78;1.90;;;;;;;18.80;41.58;99535.88;1788104;79;21311;-79
2021/05/06 15:42:28;;;;;;;10.90;1.92;;;;;;;18.71;41.65;99535.98;1785318;79;21160;-79
2021/05/06 15:45:40;;;;;;;2.87;1.42;;;;;;;18.64;41.67;99534.73;1772774;79;21287;-79
2021/05/06 15:48:42;;;;;;;5.30;2.33;;;;;;;18.56;41.58;99530.13;1766691;79;21224;-79
2021/05/06 15:51:48;;;;;;;7.97;2.17;;;;;;;18.50;41.46;99537.50;1768768;79;21323;-79
2021/05/06 15:54:54;;;;;;;6.62;1.62;;;;;;;18.46;40.83;99544.62;1792194;79;22009;-79
2021/05/06 15:58:01;;;;;;;4.20;1.65;;;;;;;18.41;40.72;99541.75;1769092;79;21395;-79
2021/05/06 16:01:07;;;;;;;3.35;1.55;;;;;;;18.37;40.42;99547.48;1799386;79;21219;-79
2021/05/06 16:04:16;;;;;;;4.83;1.67;;;;;;;18.32;40.11;99546.83;1803379;79;21363;-79
2021/05/06 16:07:21;;;;;;;9.43;2.05;;;;;;;18.30;40.18;99546.77;1803049;79;21342;-79
2021/05/06 16:10:27;;;;;;;7.92;1.65;;;;;;;18.29;40.21;99557.55;1806067;79;21712;-79
2021/05/06 16:13:33;;;;;;;26.02;2.17;;;;;;;18.26;40.11;99558.05;1779160;80;21200;-79
2021/05/06 16:16:38;;;;;;;10.60;1.75;;;;;;;18.23;39.94;99562.14;1798594;79;21187;-79
2021/05/06 16:19:44;;;;;;;10.28;1.80;;;;;;;18.18;39.62;99559.81;1803477;79;21275;-79
2021/05/06 16:22:51;;;;;;;11.95;1.72;;;;;;;18.12;39.66;99566.63;1806634;79;21877;-79
2021/05/06 16:25:57;;;;;;;5.60;2.15;;;;;;;18.08;39.71;99568.73;1809932;79;21303;-78
2021/05/06 16:29:03;;;;;;;7.80;1.92;;;;;;;18.03;39.77;99570.84;1809970;79;21291;-79
2021/05/06 16:32:09;;;;;;;11.55;1.42;;;;;;;17.98;39.84;99565.75;1811402;79;21878;-79
2021/05/06 16:35:20;;;;;;;8.73;1.30;;;;;;;17.93;39.59;99568.41;1811397;78;21803;-79
2021/05/06 16:38:23;;;;;;;5.12;2.17;;;;;;;17.87;39.59;99575.72;1811096;79;21220;-79
2021/05/06 16:41:33;;;;;;;3.70;1.70;;;;;;;17.76;39.86;99569.67;1811181;79;21288;-79
2021/05/06 16:44:38;;;;;;;3.95;1.98;;;;;;;17.63;40.70;99574.31;1811468;79;21291;-79
2021/05/06 16:47:44;;;;;;;6.78;2.55;;;;;;;17.51;41.54;99579.02;1811274;79;21592;-79
2021/05/06 16:50:49;;;;;;;3.90;2.02;;;;;;;17.36;42.34;99576.72;1810979;78;21275;-79
2021/05/06 16:53:57;;;;;;;6.75;2.33;;;;;;;17.24;43.10;99575.01;1809291;79;21299;-79
2021/05/06 16:57:02;;;;;;;9.20;1.98;;;;;;;17.09;43.89;99572.70;1810475;79;21185;-79
2021/05/06 17:00:08;;;;;;;3.83;1.62;;;;;;;16.92;44.63;99578.59;1808541;79;21422;-79
2021/05/06 17:03:13;;;;;;;9.35;2.35;;;;;;;16.74;45.36;99573.95;1800452;79;22309;-79
2021/05/06 17:06:19;;;;;;;5.78;2.70;;;;;;;16.60;45.87;99581.01;1801231;79;21332;-79
2021/05/06 17:09:25;;;;;;;10.90;2.72;;;;;;;16.47;46.38;99581.20;1802167;79;21292;-79
2021/05/06 17:12:31;;;;;;;19.25;3.33;;;;;;;16.36;46.87;99583.35;1802602;79;21955;-78
2021/05/06 17:15:36;;;;;;;14.23;3.10;;;;;;;16.26;47.61;99584.44;1802953;79;21181;-79
2021/05/06 17:18:42;;;;;;;10.25;4.75;;;;;;;16.13;48.38;99577.69;1801337;79;21265;-79
2021/05/06 17:21:47;;;;;;;9.38;4.28;;;;;;;15.99;49.05;99579.76;1802313;79;21343;-79
2021/05/06 17:24:53;;;;;;;12.30;4.05;;;;;;;15.89;49.01;99578.91;1802930;79;21287;-78
2021/05/06 17:28:00;;;;;;;10.08;4.28;;;;;;;15.81;49.34;99583.38;1803007;79;21177;-79
2021/05/06 17:31:06;;;;;;;16.45;3.45;;;;;;;15.72;50.51;99589.71;1802740;79;21858;-79
2021/05/06 17:34:12;;;;;;;9.60;3.30;;;;;;;15.63;50.83;99590.20;1800736;79;21264;-78
2021/05/06 17:37:18;;;;;;;10.75;3.42;;;;;;;15.53;51.22;99596.23;1801076;79;21303;-79
2021/05/06 17:40:25;;;;;;;13.15;3.15;;;;;;;15.44;51.74;99594.83;1801349;79;21319;-79
2021/05/06 17:43:32;;;;;;;12.63;3.17;;;;;;;15.36;52.16;99600.61;1802946;79;21181;-78